Terminal Aerodrome Forecast
Issued by NWS Wilmington, OH

Current Version | Previous Version | Text Only | Print | Product List | Glossary Off
Versions: 1 2 3 4 5 6 7 8 9 10 11 12 13 14 15 16 17 18 19 20 21 22 23 24 25 26 27

000
FTUS41 KILN 240900 AAA
TAFCVG
TAF AMD
KCVG 240959Z 2410/2512 04010KT P6SM SCT012 OVC060
      TEMPO 2410/2414 BKN012
     FM241400 06008KT P6SM OVC025
     FM241700 08009KT P6SM VCSH BKN035
     FM250200 13010KT P6SM VCSH OVC040
     FM250800 18013G20KT P6SM BKN080=

USA.gov is the U.S. government's official web portal to all federal, state and local government web resources and services.